sensor_id;sensor_type;location;lat;lon;timestamp;P1;durP1;ratioP1;P2;durP2;ratioP2
17598;SDS011;8918;52.092;5.232;2022-12-10T00:01:27;60.27;;;27.43;;
17598;SDS011;8918;52.092;5.232;2022-12-10T00:03:54;63.30;;;28.13;;
17598;SDS011;8918;52.092;5.232;2022-12-10T00:06:22;56.50;;;26.90;;
17598;SDS011;8918;52.092;5.232;2022-12-10T00:08:49;58.03;;;27.10;;
17598;SDS011;8918;52.092;5.232;2022-12-10T00:11:15;56.67;;;26.33;;
17598;SDS011;8918;52.092;5.232;2022-12-10T00:13:43;61.17;;;28.00;;
17598;SDS011;8918;52.092;5.232;2022-12-10T00:16:12;56.37;;;26.50;;
17598;SDS011;8918;52.092;5.232;2022-12-10T00:18:38;56.97;;;27.20;;
17598;SDS011;8918;52.092;5.232;2022-12-10T00:21:05;65.33;;;27.57;;
17598;SDS011;8918;52.092;5.232;2022-12-10T00:23:32;63.13;;;27.97;;
17598;SDS011;8918;52.092;5.232;2022-12-10T00:26:07;61.83;;;29.07;;
17598;SDS011;8918;52.092;5.232;2022-12-10T00:28:35;62.97;;;28.37;;
17598;SDS011;8918;52.092;5.232;2022-12-10T00:31:05;58.70;;;28.17;;
17598;SDS011;8918;52.092;5.232;2022-12-10T00:33:33;65.57;;;29.37;;
17598;SDS011;8918;52.092;5.232;2022-12-10T00:36:07;64.50;;;27.93;;
17598;SDS011;8918;52.092;5.232;2022-12-10T00:38:38;68.70;;;29.77;;
17598;SDS011;8918;52.092;5.232;2022-12-10T00:41:04;65.97;;;29.23;;
17598;SDS011;8918;52.092;5.232;2022-12-10T00:43:30;65.43;;;29.27;;
17598;SDS011;8918;52.092;5.232;2022-12-10T00:45:56;64.57;;;28.17;;
17598;SDS011;8918;52.092;5.232;2022-12-10T00:51:01;68.97;;;30.37;;
17598;SDS011;8918;52.092;5.232;2022-12-10T00:53:35;71.67;;;28.57;;
17598;SDS011;8918;52.092;5.232;2022-12-10T00:56:02;73.33;;;30.40;;
17598;SDS011;8918;52.092;5.232;2022-12-10T00:58:29;69.97;;;29.93;;
17598;SDS011;8918;52.092;5.232;2022-12-10T01:01:12;70.77;;;29.03;;
17598;SDS011;8918;52.092;5.232;2022-12-10T01:03:42;69.70;;;29.83;;
17598;SDS011;8918;52.092;5.232;2022-12-10T01:06:09;68.47;;;30.10;;
17598;SDS011;8918;52.092;5.232;2022-12-10T01:08:56;63.63;;;28.87;;
17598;SDS011;8918;52.092;5.232;2022-12-10T01:11:28;70.67;;;30.20;;
17598;SDS011;8918;52.092;5.232;2022-12-10T01:13:55;74.13;;;30.67;;
17598;SDS011;8918;52.092;5.232;2022-12-10T01:16:22;80.80;;;30.37;;
17598;SDS011;8918;52.092;5.232;2022-12-10T01:18:48;73.63;;;29.17;;
17598;SDS011;8918;52.092;5.232;2022-12-10T01:21:16;76.07;;;30.07;;
17598;SDS011;8918;52.092;5.232;2022-12-10T01:23:43;71.90;;;29.90;;
17598;SDS011;8918;52.092;5.232;2022-12-10T01:26:11;75.20;;;30.40;;
17598;SDS011;8918;52.092;5.232;2022-12-10T01:28:39;76.30;;;31.20;;
17598;SDS011;8918;52.092;5.232;2022-12-10T01:31:07;87.20;;;32.23;;
17598;SDS011;8918;52.092;5.232;2022-12-10T01:33:39;87.13;;;32.50;;
17598;SDS011;8918;52.092;5.232;2022-12-10T01:36:10;84.70;;;31.70;;
17598;SDS011;8918;52.092;5.232;2022-12-10T01:38:40;83.50;;;31.30;;
17598;SDS011;8918;52.092;5.232;2022-12-10T01:41:07;91.90;;;33.17;;
17598;SDS011;8918;52.092;5.232;2022-12-10T01:46:34;88.00;;;33.03;;
17598;SDS011;8918;52.092;5.232;2022-12-10T01:49:03;87.70;;;33.53;;
17598;SDS011;8918;52.092;5.232;2022-12-10T01:51:31;75.90;;;31.53;;
17598;SDS011;8918;52.092;5.232;2022-12-10T01:53:59;85.60;;;32.87;;
17598;SDS011;8918;52.092;5.232;2022-12-10T01:56:25;81.07;;;31.77;;
17598;SDS011;8918;52.092;5.232;2022-12-10T01:58:51;99.67;;;33.40;;
17598;SDS011;8918;52.092;5.232;2022-12-10T02:04:24;84.83;;;30.17;;
17598;SDS011;8918;52.092;5.232;2022-12-10T02:06:56;79.00;;;30.40;;
17598;SDS011;8918;52.092;5.232;2022-12-10T02:12:24;111.00;;;32.20;;
17598;SDS011;8918;52.092;5.232;2022-12-10T02:17:47;93.10;;;32.50;;
17598;SDS011;8918;52.092;5.232;2022-12-10T02:20:35;78.37;;;30.50;;
17598;SDS011;8918;52.092;5.232;2022-12-10T02:23:06;75.60;;;28.63;;
17598;SDS011;8918;52.092;5.232;2022-12-10T02:30:43;98.90;;;30.33;;
17598;SDS011;8918;52.092;5.232;2022-12-10T02:33:11;72.53;;;28.33;;
17598;SDS011;8918;52.092;5.232;2022-12-10T02:35:39;94.13;;;30.50;;
17598;SDS011;8918;52.092;5.232;2022-12-10T02:38:11;79.67;;;27.87;;
17598;SDS011;8918;52.092;5.232;2022-12-10T02:40:41;79.60;;;28.83;;
17598;SDS011;8918;52.092;5.232;2022-12-10T02:43:11;91.70;;;28.77;;
17598;SDS011;8918;52.092;5.232;2022-12-10T02:45:38;80.73;;;29.03;;
17598;SDS011;8918;52.092;5.232;2022-12-10T02:48:05;84.73;;;29.17;;
17598;SDS011;8918;52.092;5.232;2022-12-10T02:50:31;84.20;;;31.13;;
17598;SDS011;8918;52.092;5.232;2022-12-10T02:52:57;81.63;;;30.23;;
17598;SDS011;8918;52.092;5.232;2022-12-10T02:55:22;88.33;;;30.40;;
17598;SDS011;8918;52.092;5.232;2022-12-10T02:58:02;89.10;;;30.03;;
17598;SDS011;8918;52.092;5.232;2022-12-10T03:00:50;72.33;;;28.20;;
17598;SDS011;8918;52.092;5.232;2022-12-10T03:05:57;84.10;;;28.30;;
17598;SDS011;8918;52.092;5.232;2022-12-10T03:08:33;74.90;;;28.50;;
17598;SDS011;8918;52.092;5.232;2022-12-10T03:11:10;118.67;;;32.83;;
17598;SDS011;8918;52.092;5.232;2022-12-10T03:14:11;102.13;;;31.47;;
17598;SDS011;8918;52.092;5.232;2022-12-10T03:16:41;79.60;;;28.73;;
17598;SDS011;8918;52.092;5.232;2022-12-10T03:19:11;74.93;;;29.00;;
17598;SDS011;8918;52.092;5.232;2022-12-10T03:21:41;76.73;;;28.37;;
17598;SDS011;8918;52.092;5.232;2022-12-10T03:24:11;71.87;;;28.00;;
17598;SDS011;8918;52.092;5.232;2022-12-10T03:26:37;81.93;;;29.67;;
17598;SDS011;8918;52.092;5.232;2022-12-10T03:29:06;110.30;;;28.37;;
17598;SDS011;8918;52.092;5.232;2022-12-10T03:31:34;93.10;;;27.20;;
17598;SDS011;8918;52.092;5.232;2022-12-10T03:34:02;73.13;;;26.67;;
17598;SDS011;8918;52.092;5.232;2022-12-10T03:36:29;120.00;;;28.30;;
17598;SDS011;8918;52.092;5.232;2022-12-10T03:38:56;142.57;;;30.47;;
17598;SDS011;8918;52.092;5.232;2022-12-10T03:41:23;89.87;;;27.53;;
17598;SDS011;8918;52.092;5.232;2022-12-10T03:43:49;89.17;;;27.93;;
17598;SDS011;8918;52.092;5.232;2022-12-10T03:46:19;89.30;;;29.57;;
17598;SDS011;8918;52.092;5.232;2022-12-10T03:48:45;84.63;;;27.77;;
17598;SDS011;8918;52.092;5.232;2022-12-10T03:51:11;85.50;;;29.50;;
17598;SDS011;8918;52.092;5.232;2022-12-10T03:53:37;84.17;;;28.77;;
17598;SDS011;8918;52.092;5.232;2022-12-10T03:56:02;110.67;;;28.10;;
17598;SDS011;8918;52.092;5.232;2022-12-10T03:58:28;83.20;;;28.40;;
17598;SDS011;8918;52.092;5.232;2022-12-10T04:00:54;152.90;;;31.97;;
17598;SDS011;8918;52.092;5.232;2022-12-10T04:03:19;141.90;;;31.17;;
17598;SDS011;8918;52.092;5.232;2022-12-10T04:05:45;94.40;;;29.93;;
17598;SDS011;8918;52.092;5.232;2022-12-10T04:08:10;113.40;;;29.90;;
17598;SDS011;8918;52.092;5.232;2022-12-10T04:10:36;163.30;;;32.87;;
17598;SDS011;8918;52.092;5.232;2022-12-10T04:13:03;162.23;;;33.77;;
17598;SDS011;8918;52.092;5.232;2022-12-10T04:15:53;230.27;;;34.43;;
17598;SDS011;8918;52.092;5.232;2022-12-10T04:18:40;88.60;;;29.97;;
17598;SDS011;8918;52.092;5.232;2022-12-10T04:21:06;133.93;;;32.37;;
17598;SDS011;8918;52.092;5.232;2022-12-10T04:23:50;110.53;;;30.07;;
17598;SDS011;8918;52.092;5.232;2022-12-10T04:26:34;102.50;;;30.53;;
17598;SDS011;8918;52.092;5.232;2022-12-10T04:29:28;93.87;;;31.27;;
17598;SDS011;8918;52.092;5.232;2022-12-10T04:31:55;99.37;;;31.43;;
17598;SDS011;8918;52.092;5.232;2022-12-10T04:34:21;129.30;;;32.33;;
17598;SDS011;8918;52.092;5.232;2022-12-10T04:36:48;104.63;;;33.50;;
17598;SDS011;8918;52.092;5.232;2022-12-10T04:39:13;92.07;;;32.77;;
17598;SDS011;8918;52.092;5.232;2022-12-10T04:41:43;101.10;;;32.50;;
17598;SDS011;8918;52.092;5.232;2022-12-10T04:44:10;97.17;;;33.00;;
17598;SDS011;8918;52.092;5.232;2022-12-10T04:46:36;96.83;;;34.03;;
17598;SDS011;8918;52.092;5.232;2022-12-10T04:49:05;95.67;;;32.63;;
17598;SDS011;8918;52.092;5.232;2022-12-10T04:51:31;104.70;;;31.53;;
17598;SDS011;8918;52.092;5.232;2022-12-10T04:53:57;97.80;;;29.37;;
17598;SDS011;8918;52.092;5.232;2022-12-10T04:56:24;98.53;;;28.13;;
17598;SDS011;8918;52.092;5.232;2022-12-10T04:58:50;92.70;;;29.57;;
17598;SDS011;8918;52.092;5.232;2022-12-10T05:01:15;108.70;;;30.83;;
17598;SDS011;8918;52.092;5.232;2022-12-10T05:03:43;83.07;;;29.30;;
17598;SDS011;8918;52.092;5.232;2022-12-10T05:06:13;79.87;;;28.40;;
17598;SDS011;8918;52.092;5.232;2022-12-10T05:08:40;80.83;;;27.93;;
17598;SDS011;8918;52.092;5.232;2022-12-10T05:11:07;77.67;;;29.67;;
17598;SDS011;8918;52.092;5.232;2022-12-10T05:13:38;69.30;;;28.27;;
17598;SDS011;8918;52.092;5.232;2022-12-10T05:16:04;86.77;;;28.60;;
17598;SDS011;8918;52.092;5.232;2022-12-10T05:18:31;84.73;;;27.90;;
17598;SDS011;8918;52.092;5.232;2022-12-10T05:20:58;83.37;;;27.93;;
17598;SDS011;8918;52.092;5.232;2022-12-10T05:23:24;72.33;;;28.63;;
17598;SDS011;8918;52.092;5.232;2022-12-10T05:26:08;73.43;;;28.07;;
17598;SDS011;8918;52.092;5.232;2022-12-10T05:28:40;63.10;;;26.93;;
17598;SDS011;8918;52.092;5.232;2022-12-10T05:31:11;80.73;;;28.70;;
17598;SDS011;8918;52.092;5.232;2022-12-10T05:33:38;112.73;;;30.23;;
17598;SDS011;8918;52.092;5.232;2022-12-10T05:36:04;69.87;;;27.63;;
17598;SDS011;8918;52.092;5.232;2022-12-10T05:38:31;66.87;;;27.57;;
17598;SDS011;8918;52.092;5.232;2022-12-10T05:41:04;74.87;;;27.27;;
17598;SDS011;8918;52.092;5.232;2022-12-10T05:43:35;68.90;;;28.40;;
17598;SDS011;8918;52.092;5.232;2022-12-10T05:46:01;93.40;;;28.40;;
17598;SDS011;8918;52.092;5.232;2022-12-10T05:48:27;70.73;;;27.00;;
17598;SDS011;8918;52.092;5.232;2022-12-10T05:50:53;67.73;;;26.33;;
17598;SDS011;8918;52.092;5.232;2022-12-10T05:53:19;65.43;;;25.90;;
17598;SDS011;8918;52.092;5.232;2022-12-10T05:55:44;74.77;;;26.93;;
17598;SDS011;8918;52.092;5.232;2022-12-10T05:58:10;68.83;;;27.67;;
17598;SDS011;8918;52.092;5.232;2022-12-10T06:00:38;70.00;;;27.90;;
17598;SDS011;8918;52.092;5.232;2022-12-10T06:03:04;72.87;;;27.47;;
17598;SDS011;8918;52.092;5.232;2022-12-10T06:05:35;80.90;;;27.73;;
17598;SDS011;8918;52.092;5.232;2022-12-10T06:08:05;70.47;;;26.97;;
17598;SDS011;8918;52.092;5.232;2022-12-10T06:10:33;79.37;;;29.07;;
17598;SDS011;8918;52.092;5.232;2022-12-10T06:12:59;101.23;;;28.30;;
17598;SDS011;8918;52.092;5.232;2022-12-10T06:15:25;75.47;;;27.07;;
17598;SDS011;8918;52.092;5.232;2022-12-10T06:17:54;68.07;;;28.03;;
17598;SDS011;8918;52.092;5.232;2022-12-10T06:20:20;73.47;;;28.20;;
17598;SDS011;8918;52.092;5.232;2022-12-10T06:22:46;74.37;;;27.80;;
17598;SDS011;8918;52.092;5.232;2022-12-10T06:25:12;73.53;;;27.83;;
17598;SDS011;8918;52.092;5.232;2022-12-10T06:27:38;79.10;;;28.27;;
17598;SDS011;8918;52.092;5.232;2022-12-10T06:30:04;77.13;;;29.13;;
17598;SDS011;8918;52.092;5.232;2022-12-10T06:32:30;77.53;;;29.27;;
17598;SDS011;8918;52.092;5.232;2022-12-10T06:34:56;77.97;;;29.60;;
17598;SDS011;8918;52.092;5.232;2022-12-10T06:37:21;97.03;;;29.47;;
17598;SDS011;8918;52.092;5.232;2022-12-10T06:39:47;74.70;;;30.00;;
17598;SDS011;8918;52.092;5.232;2022-12-10T06:42:14;69.30;;;28.30;;
17598;SDS011;8918;52.092;5.232;2022-12-10T06:44:40;68.73;;;28.97;;
17598;SDS011;8918;52.092;5.232;2022-12-10T06:47:05;87.73;;;30.47;;
17598;SDS011;8918;52.092;5.232;2022-12-10T06:49:31;86.30;;;30.57;;
17598;SDS011;8918;52.092;5.232;2022-12-10T06:51:56;78.13;;;30.73;;
17598;SDS011;8918;52.092;5.232;2022-12-10T06:54:22;78.73;;;30.50;;
17598;SDS011;8918;52.092;5.232;2022-12-10T06:56:48;79.23;;;29.07;;
17598;SDS011;8918;52.092;5.232;2022-12-10T06:59:13;76.23;;;27.93;;
17598;SDS011;8918;52.092;5.232;2022-12-10T07:01:39;90.37;;;30.50;;
17598;SDS011;8918;52.092;5.232;2022-12-10T07:04:05;71.53;;;28.80;;
17598;SDS011;8918;52.092;5.232;2022-12-10T07:06:31;75.77;;;30.00;;
17598;SDS011;8918;52.092;5.232;2022-12-10T07:08:56;74.40;;;29.30;;
17598;SDS011;8918;52.092;5.232;2022-12-10T07:11:22;74.53;;;28.33;;
17598;SDS011;8918;52.092;5.232;2022-12-10T07:13:50;79.77;;;29.07;;
17598;SDS011;8918;52.092;5.232;2022-12-10T07:16:18;71.40;;;28.17;;
17598;SDS011;8918;52.092;5.232;2022-12-10T07:18:48;67.90;;;28.27;;
17598;SDS011;8918;52.092;5.232;2022-12-10T07:21:25;83.27;;;29.63;;
17598;SDS011;8918;52.092;5.232;2022-12-10T07:23:54;73.87;;;29.00;;
17598;SDS011;8918;52.092;5.232;2022-12-10T07:26:23;72.80;;;28.00;;
17598;SDS011;8918;52.092;5.232;2022-12-10T07:28:59;82.10;;;28.03;;
17598;SDS011;8918;52.092;5.232;2022-12-10T07:31:26;71.80;;;27.07;;
17598;SDS011;8918;52.092;5.232;2022-12-10T07:33:52;107.70;;;29.23;;
17598;SDS011;8918;52.092;5.232;2022-12-10T07:36:19;61.57;;;26.53;;
17598;SDS011;8918;52.092;5.232;2022-12-10T07:38:47;69.00;;;26.90;;
17598;SDS011;8918;52.092;5.232;2022-12-10T07:41:14;57.73;;;24.37;;
17598;SDS011;8918;52.092;5.232;2022-12-10T07:43:40;62.30;;;26.37;;
17598;SDS011;8918;52.092;5.232;2022-12-10T07:46:08;69.83;;;27.00;;
17598;SDS011;8918;52.092;5.232;2022-12-10T07:48:39;72.13;;;27.27;;
17598;SDS011;8918;52.092;5.232;2022-12-10T07:51:06;73.97;;;26.97;;
17598;SDS011;8918;52.092;5.232;2022-12-10T07:53:32;76.20;;;29.37;;
17598;SDS011;8918;52.092;5.232;2022-12-10T07:55:58;89.27;;;29.53;;
17598;SDS011;8918;52.092;5.232;2022-12-10T07:58:23;86.97;;;29.40;;
17598;SDS011;8918;52.092;5.232;2022-12-10T08:00:49;73.90;;;29.40;;
17598;SDS011;8918;52.092;5.232;2022-12-10T08:03:15;80.67;;;28.43;;
17598;SDS011;8918;52.092;5.232;2022-12-10T08:05:40;68.90;;;26.80;;
17598;SDS011;8918;52.092;5.232;2022-12-10T08:08:06;67.77;;;27.40;;
17598;SDS011;8918;52.092;5.232;2022-12-10T08:10:35;67.30;;;27.47;;
17598;SDS011;8918;52.092;5.232;2022-12-10T08:13:01;71.17;;;28.20;;
17598;SDS011;8918;52.092;5.232;2022-12-10T08:15:27;79.57;;;28.30;;
17598;SDS011;8918;52.092;5.232;2022-12-10T08:17:53;75.60;;;27.97;;
17598;SDS011;8918;52.092;5.232;2022-12-10T08:20:19;66.50;;;25.10;;
17598;SDS011;8918;52.092;5.232;2022-12-10T08:22:45;70.43;;;26.17;;
17598;SDS011;8918;52.092;5.232;2022-12-10T08:25:11;70.10;;;25.87;;
17598;SDS011;8918;52.092;5.232;2022-12-10T08:27:36;76.30;;;26.97;;
17598;SDS011;8918;52.092;5.232;2022-12-10T08:30:02;103.97;;;28.23;;
17598;SDS011;8918;52.092;5.232;2022-12-10T08:32:28;75.83;;;27.00;;
17598;SDS011;8918;52.092;5.232;2022-12-10T08:34:54;81.10;;;27.40;;
17598;SDS011;8918;52.092;5.232;2022-12-10T08:37:20;87.23;;;27.33;;
17598;SDS011;8918;52.092;5.232;2022-12-10T08:39:46;79.17;;;25.83;;
17598;SDS011;8918;52.092;5.232;2022-12-10T08:42:11;75.37;;;28.97;;
17598;SDS011;8918;52.092;5.232;2022-12-10T08:44:37;68.77;;;26.43;;
17598;SDS011;8918;52.092;5.232;2022-12-10T08:47:03;73.47;;;26.57;;
17598;SDS011;8918;52.092;5.232;2022-12-10T08:49:28;75.00;;;27.97;;
17598;SDS011;8918;52.092;5.232;2022-12-10T08:51:54;85.07;;;27.80;;
17598;SDS011;8918;52.092;5.232;2022-12-10T08:54:20;82.17;;;28.37;;
17598;SDS011;8918;52.092;5.232;2022-12-10T08:56:46;76.03;;;26.70;;
17598;SDS011;8918;52.092;5.232;2022-12-10T08:59:11;72.10;;;25.00;;
17598;SDS011;8918;52.092;5.232;2022-12-10T09:01:37;65.37;;;24.20;;
17598;SDS011;8918;52.092;5.232;2022-12-10T09:04:03;66.00;;;24.80;;
17598;SDS011;8918;52.092;5.232;2022-12-10T09:06:28;68.97;;;25.53;;
17598;SDS011;8918;52.092;5.232;2022-12-10T09:08:55;78.83;;;27.40;;
17598;SDS011;8918;52.092;5.232;2022-12-10T09:11:24;81.43;;;26.43;;
17598;SDS011;8918;52.092;5.232;2022-12-10T09:13:53;75.90;;;26.57;;
17598;SDS011;8918;52.092;5.232;2022-12-10T09:16:19;81.97;;;27.40;;
17598;SDS011;8918;52.092;5.232;2022-12-10T09:18:45;84.10;;;26.23;;
17598;SDS011;8918;52.092;5.232;2022-12-10T09:21:12;69.43;;;25.40;;
17598;SDS011;8918;52.092;5.232;2022-12-10T09:23:39;70.17;;;24.33;;
17598;SDS011;8918;52.092;5.232;2022-12-10T09:26:10;75.67;;;25.00;;
17598;SDS011;8918;52.092;5.232;2022-12-10T09:28:38;76.63;;;25.33;;
17598;SDS011;8918;52.092;5.232;2022-12-10T09:31:05;72.63;;;25.57;;
17598;SDS011;8918;52.092;5.232;2022-12-10T09:33:33;75.73;;;24.23;;
17598;SDS011;8918;52.092;5.232;2022-12-10T09:35:59;75.17;;;24.10;;
17598;SDS011;8918;52.092;5.232;2022-12-10T09:38:28;103.73;;;27.13;;
17598;SDS011;8918;52.092;5.232;2022-12-10T09:51:50;73.27;;;24.57;;
17598;SDS011;8918;52.092;5.232;2022-12-10T09:54:26;82.57;;;26.23;;
17598;SDS011;8918;52.092;5.232;2022-12-10T09:56:56;76.50;;;25.43;;
17598;SDS011;8918;52.092;5.232;2022-12-10T09:59:44;83.43;;;25.63;;
17598;SDS011;8918;52.092;5.232;2022-12-10T10:02:19;84.27;;;26.87;;
17598;SDS011;8918;52.092;5.232;2022-12-10T10:07:39;76.93;;;24.47;;
17598;SDS011;8918;52.092;5.232;2022-12-10T10:10:18;72.63;;;25.13;;
17598;SDS011;8918;52.092;5.232;2022-12-10T10:12:47;70.10;;;26.37;;
17598;SDS011;8918;52.092;5.232;2022-12-10T10:15:19;84.43;;;26.67;;
17598;SDS011;8918;52.092;5.232;2022-12-10T10:17:50;79.27;;;25.03;;
17598;SDS011;8918;52.092;5.232;2022-12-10T10:20:18;64.93;;;24.30;;
17598;SDS011;8918;52.092;5.232;2022-12-10T10:22:44;61.47;;;22.80;;
17598;SDS011;8918;52.092;5.232;2022-12-10T10:25:17;65.43;;;23.73;;
17598;SDS011;8918;52.092;5.232;2022-12-10T10:27:44;90.70;;;24.43;;
17598;SDS011;8918;52.092;5.232;2022-12-10T10:30:14;78.57;;;23.30;;
17598;SDS011;8918;52.092;5.232;2022-12-10T10:32:48;68.17;;;24.63;;
17598;SDS011;8918;52.092;5.232;2022-12-10T10:35:32;69.97;;;24.30;;
17598;SDS011;8918;52.092;5.232;2022-12-10T10:38:07;68.23;;;24.37;;
17598;SDS011;8918;52.092;5.232;2022-12-10T10:40:39;68.57;;;23.17;;
17598;SDS011;8918;52.092;5.232;2022-12-10T10:43:12;63.20;;;23.53;;
17598;SDS011;8918;52.092;5.232;2022-12-10T10:45:54;76.47;;;23.97;;
17598;SDS011;8918;52.092;5.232;2022-12-10T10:48:26;69.47;;;23.23;;
17598;SDS011;8918;52.092;5.232;2022-12-10T10:50:54;65.33;;;22.77;;
17598;SDS011;8918;52.092;5.232;2022-12-10T10:54:03;68.77;;;23.10;;
17598;SDS011;8918;52.092;5.232;2022-12-10T10:56:26;70.87;;;22.37;;
17598;SDS011;8918;52.092;5.232;2022-12-10T10:59:01;73.43;;;23.47;;
17598;SDS011;8918;52.092;5.232;2022-12-10T11:01:49;76.67;;;22.90;;
17598;SDS011;8918;52.092;5.232;2022-12-10T11:04:21;77.90;;;23.37;;
17598;SDS011;8918;52.092;5.232;2022-12-10T11:07:02;69.97;;;24.10;;
17598;SDS011;8918;52.092;5.232;2022-12-10T11:09:32;69.60;;;24.70;;
17598;SDS011;8918;52.092;5.232;2022-12-10T11:12:20;78.57;;;25.53;;
17598;SDS011;8918;52.092;5.232;2022-12-10T11:15:24;77.47;;;25.63;;
17598;SDS011;8918;52.092;5.232;2022-12-10T11:17:49;83.20;;;27.73;;
17598;SDS011;8918;52.092;5.232;2022-12-10T11:20:18;76.60;;;25.63;;
17598;SDS011;8918;52.092;5.232;2022-12-10T11:22:54;94.13;;;25.00;;
17598;SDS011;8918;52.092;5.232;2022-12-10T11:25:27;72.77;;;24.77;;
17598;SDS011;8918;52.092;5.232;2022-12-10T11:28:00;80.17;;;26.80;;
17598;SDS011;8918;52.092;5.232;2022-12-10T11:30:38;84.03;;;25.50;;
17598;SDS011;8918;52.092;5.232;2022-12-10T11:33:34;75.00;;;24.83;;
17598;SDS011;8918;52.092;5.232;2022-12-10T11:42:00;83.60;;;24.53;;
17598;SDS011;8918;52.092;5.232;2022-12-10T11:47:10;76.17;;;23.93;;
17598;SDS011;8918;52.092;5.232;2022-12-10T11:58:37;84.63;;;25.87;;
17598;SDS011;8918;52.092;5.232;2022-12-10T12:01:13;80.07;;;25.27;;
17598;SDS011;8918;52.092;5.232;2022-12-10T12:11:55;69.80;;;23.77;;
17598;SDS011;8918;52.092;5.232;2022-12-10T12:14:34;71.73;;;24.97;;
17598;SDS011;8918;52.092;5.232;2022-12-10T12:19:37;77.40;;;25.83;;
17598;SDS011;8918;52.092;5.232;2022-12-10T12:22:13;77.53;;;25.70;;
17598;SDS011;8918;52.092;5.232;2022-12-10T12:24:46;82.63;;;26.50;;
17598;SDS011;8918;52.092;5.232;2022-12-10T12:30:06;93.43;;;25.70;;
17598;SDS011;8918;52.092;5.232;2022-12-10T12:35:52;81.27;;;26.13;;
17598;SDS011;8918;52.092;5.232;2022-12-10T12:41:05;74.77;;;25.53;;
17598;SDS011;8918;52.092;5.232;2022-12-10T12:46:00;75.93;;;26.73;;
17598;SDS011;8918;52.092;5.232;2022-12-10T12:48:33;79.43;;;26.87;;
17598;SDS011;8918;52.092;5.232;2022-12-10T12:51:16;80.83;;;25.47;;
17598;SDS011;8918;52.092;5.232;2022-12-10T12:53:46;74.77;;;23.57;;
17598;SDS011;8918;52.092;5.232;2022-12-10T13:01:41;67.13;;;24.03;;
17598;SDS011;8918;52.092;5.232;2022-12-10T13:04:26;74.57;;;25.43;;
17598;SDS011;8918;52.092;5.232;2022-12-10T13:09:43;77.37;;;24.70;;
17598;SDS011;8918;52.092;5.232;2022-12-10T13:12:27;74.80;;;25.63;;
17598;SDS011;8918;52.092;5.232;2022-12-10T13:15:01;82.87;;;26.33;;
17598;SDS011;8918;52.092;5.232;2022-12-10T13:17:39;87.70;;;25.63;;
17598;SDS011;8918;52.092;5.232;2022-12-10T13:33:54;82.90;;;24.67;;
17598;SDS011;8918;52.092;5.232;2022-12-10T13:41:41;82.53;;;25.17;;
17598;SDS011;8918;52.092;5.232;2022-12-10T13:44:50;78.67;;;24.77;;
17598;SDS011;8918;52.092;5.232;2022-12-10T13:50:02;72.73;;;23.90;;
17598;SDS011;8918;52.092;5.232;2022-12-10T13:58:01;65.37;;;23.17;;
17598;SDS011;8918;52.092;5.232;2022-12-10T14:00:41;70.57;;;23.93;;
17598;SDS011;8918;52.092;5.232;2022-12-10T14:08:34;72.83;;;24.30;;
17598;SDS011;8918;52.092;5.232;2022-12-10T14:11:02;67.57;;;24.60;;
17598;SDS011;8918;52.092;5.232;2022-12-10T14:13:36;75.70;;;25.43;;
17598;SDS011;8918;52.092;5.232;2022-12-10T14:16:06;80.60;;;25.23;;
17598;SDS011;8918;52.092;5.232;2022-12-10T14:18:36;83.37;;;26.13;;
17598;SDS011;8918;52.092;5.232;2022-12-10T14:21:04;79.87;;;26.57;;
17598;SDS011;8918;52.092;5.232;2022-12-10T14:23:32;78.00;;;24.67;;
17598;SDS011;8918;52.092;5.232;2022-12-10T14:26:13;75.97;;;24.83;;
17598;SDS011;8918;52.092;5.232;2022-12-10T14:28:47;87.13;;;26.30;;
17598;SDS011;8918;52.092;5.232;2022-12-10T14:31:30;81.43;;;26.23;;
17598;SDS011;8918;52.092;5.232;2022-12-10T14:34:03;81.63;;;26.63;;
17598;SDS011;8918;52.092;5.232;2022-12-10T14:36:32;71.83;;;23.67;;
17598;SDS011;8918;52.092;5.232;2022-12-10T14:39:12;66.77;;;22.60;;
17598;SDS011;8918;52.092;5.232;2022-12-10T14:41:42;72.13;;;22.77;;
17598;SDS011;8918;52.092;5.232;2022-12-10T14:44:11;71.10;;;24.17;;
17598;SDS011;8918;52.092;5.232;2022-12-10T14:46:40;77.83;;;24.17;;
17598;SDS011;8918;52.092;5.232;2022-12-10T14:49:06;70.93;;;23.80;;
17598;SDS011;8918;52.092;5.232;2022-12-10T14:51:40;74.30;;;24.00;;
17598;SDS011;8918;52.092;5.232;2022-12-10T14:54:12;80.10;;;24.80;;
17598;SDS011;8918;52.092;5.232;2022-12-10T14:56:56;72.83;;;25.73;;
17598;SDS011;8918;52.092;5.232;2022-12-10T14:59:38;74.40;;;24.70;;
17598;SDS011;8918;52.092;5.232;2022-12-10T15:04:52;76.20;;;24.20;;
17598;SDS011;8918;52.092;5.232;2022-12-10T15:07:25;75.73;;;25.13;;
17598;SDS011;8918;52.092;5.232;2022-12-10T15:09:56;77.57;;;25.70;;
17598;SDS011;8918;52.092;5.232;2022-12-10T15:12:37;87.50;;;28.63;;
17598;SDS011;8918;52.092;5.232;2022-12-10T15:18:29;86.10;;;28.40;;
17598;SDS011;8918;52.092;5.232;2022-12-10T15:23:42;81.90;;;26.43;;
17598;SDS011;8918;52.092;5.232;2022-12-10T15:28:46;90.40;;;27.83;;
17598;SDS011;8918;52.092;5.232;2022-12-10T15:34:01;86.87;;;26.67;;
17598;SDS011;8918;52.092;5.232;2022-12-10T15:39:21;74.33;;;25.00;;
17598;SDS011;8918;52.092;5.232;2022-12-10T15:41:55;88.90;;;26.40;;
17598;SDS011;8918;52.092;5.232;2022-12-10T15:46:57;89.33;;;26.00;;
17598;SDS011;8918;52.092;5.232;2022-12-10T15:49:26;79.80;;;26.60;;
17598;SDS011;8918;52.092;5.232;2022-12-10T15:51:53;86.50;;;27.83;;
17598;SDS011;8918;52.092;5.232;2022-12-10T15:54:35;79.40;;;25.73;;
17598;SDS011;8918;52.092;5.232;2022-12-10T15:57:11;75.97;;;25.00;;
17598;SDS011;8918;52.092;5.232;2022-12-10T15:59:42;74.07;;;26.33;;
17598;SDS011;8918;52.092;5.232;2022-12-10T16:05:16;84.13;;;27.30;;
17598;SDS011;8918;52.092;5.232;2022-12-10T16:07:44;71.67;;;25.00;;
17598;SDS011;8918;52.092;5.232;2022-12-10T16:10:12;78.87;;;24.80;;
17598;SDS011;8918;52.092;5.232;2022-12-10T16:12:39;80.00;;;25.10;;
17598;SDS011;8918;52.092;5.232;2022-12-10T16:15:07;79.57;;;25.17;;
17598;SDS011;8918;52.092;5.232;2022-12-10T16:17:39;86.43;;;25.83;;
17598;SDS011;8918;52.092;5.232;2022-12-10T16:22:37;74.97;;;25.87;;
17598;SDS011;8918;52.092;5.232;2022-12-10T16:25:02;77.50;;;27.00;;
17598;SDS011;8918;52.092;5.232;2022-12-10T16:27:28;81.23;;;26.83;;
17598;SDS011;8918;52.092;5.232;2022-12-10T16:29:57;83.77;;;32.73;;
17598;SDS011;8918;52.092;5.232;2022-12-10T16:32:23;117.23;;;39.57;;
17598;SDS011;8918;52.092;5.232;2022-12-10T16:34:49;77.33;;;25.17;;
17598;SDS011;8918;52.092;5.232;2022-12-10T16:37:15;78.37;;;26.10;;
17598;SDS011;8918;52.092;5.232;2022-12-10T16:39:40;73.20;;;26.10;;
17598;SDS011;8918;52.092;5.232;2022-12-10T16:42:08;81.10;;;26.13;;
17598;SDS011;8918;52.092;5.232;2022-12-10T16:44:36;74.40;;;25.60;;
17598;SDS011;8918;52.092;5.232;2022-12-10T16:47:08;76.97;;;25.37;;
17598;SDS011;8918;52.092;5.232;2022-12-10T16:49:37;75.73;;;23.87;;
17598;SDS011;8918;52.092;5.232;2022-12-10T16:52:02;83.70;;;26.97;;
17598;SDS011;8918;52.092;5.232;2022-12-10T16:54:29;79.73;;;25.50;;
17598;SDS011;8918;52.092;5.232;2022-12-10T16:56:55;79.90;;;24.60;;
17598;SDS011;8918;52.092;5.232;2022-12-10T16:59:20;79.43;;;26.33;;
17598;SDS011;8918;52.092;5.232;2022-12-10T17:01:46;76.20;;;25.63;;
17598;SDS011;8918;52.092;5.232;2022-12-10T17:04:11;75.00;;;24.90;;
17598;SDS011;8918;52.092;5.232;2022-12-10T17:06:37;69.87;;;23.93;;
17598;SDS011;8918;52.092;5.232;2022-12-10T17:09:03;79.87;;;26.10;;
17598;SDS011;8918;52.092;5.232;2022-12-10T17:11:39;78.37;;;24.80;;